sensor_id;sensor_type;location;lat;lon;timestamp;pressure;altitude;pressure_sealevel;temperature;humidity
24013;BME280;12220;50.194;18.948;2023-03-23T00:01:32;101405.90;;;12.29;59.97
24013;BME280;12220;50.194;18.948;2023-03-23T00:03:41;101395.52;;;12.20;60.05
24013;BME280;12220;50.194;18.948;2023-03-23T00:05:44;101399.76;;;12.11;60.21
24013;BME280;12220;50.194;18.948;2023-03-23T00:07:51;101400.27;;;12.03;60.36
24013;BME280;12220;50.194;18.948;2023-03-23T00:09:56;101408.81;;;11.99;60.51
24013;BME280;12220;50.194;18.948;2023-03-23T00:11:57;101405.47;;;11.94;60.59
24013;BME280;12220;50.194;18.948;2023-03-23T00:14:17;101407.63;;;11.89;60.70
24013;BME280;12220;50.194;18.948;2023-03-23T00:16:25;101405.35;;;11.81;60.73
24013;BME280;12220;50.194;18.948;2023-03-23T00:18:32;101412.25;;;11.74;60.85
24013;BME280;12220;50.194;18.948;2023-03-23T00:20:36;101418.20;;;11.66;60.97
24013;BME280;12220;50.194;18.948;2023-03-23T00:22:40;101412.15;;;11.61;61.11
24013;BME280;12220;50.194;18.948;2023-03-23T00:24:42;101406.26;;;11.53;61.20
24013;BME280;12220;50.194;18.948;2023-03-23T00:26:46;101412.13;;;11.46;61.29
24013;BME280;12220;50.194;18.948;2023-03-23T00:28:49;101410.76;;;11.39;61.40
24013;BME280;12220;50.194;18.948;2023-03-23T00:31:03;101431.32;;;11.32;61.49
24013;BME280;12220;50.194;18.948;2023-03-23T00:33:14;101414.25;;;11.27;61.64
24013;BME280;12220;50.194;18.948;2023-03-23T00:35:17;101410.03;;;11.21;61.80
24013;BME280;12220;50.194;18.948;2023-03-23T00:37:20;101408.48;;;11.17;61.95
24013;BME280;12220;50.194;18.948;2023-03-23T00:39:24;101404.94;;;11.15;62.07
24013;BME280;12220;50.194;18.948;2023-03-23T00:41:29;101397.62;;;11.15;62.13
24013;BME280;12220;50.194;18.948;2023-03-23T00:43:32;101399.45;;;11.15;62.24
24013;BME280;12220;50.194;18.948;2023-03-23T00:45:37;101399.36;;;11.16;62.29
24013;BME280;12220;50.194;18.948;2023-03-23T00:47:38;101393.68;;;11.20;62.39
24013;BME280;12220;50.194;18.948;2023-03-23T00:49:43;101389.77;;;11.24;62.41
24013;BME280;12220;50.194;18.948;2023-03-23T00:51:45;101398.81;;;11.26;62.55
24013;BME280;12220;50.194;18.948;2023-03-23T00:53:47;101393.02;;;11.30;62.47
24013;BME280;12220;50.194;18.948;2023-03-23T00:55:49;101398.21;;;11.35;62.51
24013;BME280;12220;50.194;18.948;2023-03-23T00:57:59;101396.24;;;11.37;62.42
24013;BME280;12220;50.194;18.948;2023-03-23T01:00:01;101396.24;;;11.37;62.35
24013;BME280;12220;50.194;18.948;2023-03-23T01:02:10;101175.61;;;10.13;62.19
24013;BME280;12220;50.194;18.948;2023-03-23T01:04:12;101391.87;;;11.34;62.24
24013;BME280;12220;50.194;18.948;2023-03-23T01:06:15;101384.80;;;11.30;62.11
24013;BME280;12220;50.194;18.948;2023-03-23T01:08:18;101384.09;;;11.27;62.15
24013;BME280;12220;50.194;18.948;2023-03-23T01:10:19;101375.40;;;11.20;62.13
24013;BME280;12220;50.194;18.948;2023-03-23T01:12:21;101377.52;;;11.15;62.15
24013;BME280;12220;50.194;18.948;2023-03-23T01:14:30;101376.05;;;11.09;62.23
24013;BME280;12220;50.194;18.948;2023-03-23T01:16:32;101380.85;;;11.06;62.35
24013;BME280;12220;50.194;18.948;2023-03-23T01:18:33;101377.41;;;11.02;62.41
24013;BME280;12220;50.194;18.948;2023-03-23T01:20:36;101383.17;;;10.97;62.48
24013;BME280;12220;50.194;18.948;2023-03-23T01:22:45;101377.02;;;10.94;62.59
24013;BME280;12220;50.194;18.948;2023-03-23T01:24:46;101385.53;;;10.89;62.67
24013;BME280;12220;50.194;18.948;2023-03-23T01:26:48;101383.05;;;10.85;62.75
24013;BME280;12220;50.194;18.948;2023-03-23T01:28:50;101380.40;;;10.83;62.84
24013;BME280;12220;50.194;18.948;2023-03-23T01:31:05;101380.78;;;10.77;62.90
24013;BME280;12220;50.194;18.948;2023-03-23T01:33:07;101390.25;;;10.71;63.04
24013;BME280;12220;50.194;18.948;2023-03-23T01:35:09;101386.82;;;10.68;63.15
24013;BME280;12220;50.194;18.948;2023-03-23T01:37:11;101383.37;;;10.64;63.25
24013;BME280;12220;50.194;18.948;2023-03-23T01:39:15;101378.28;;;10.58;63.30
24013;BME280;12220;50.194;18.948;2023-03-23T01:41:18;101378.65;;;10.52;63.43
24013;BME280;12220;50.194;18.948;2023-03-23T01:43:20;101385.27;;;10.48;63.62
24013;BME280;12220;50.194;18.948;2023-03-23T01:45:29;101381.91;;;10.42;63.72
24013;BME280;12220;50.194;18.948;2023-03-23T01:47:31;101380.37;;;10.38;63.83
24013;BME280;12220;50.194;18.948;2023-03-23T01:49:37;101381.41;;;10.36;63.85
24013;BME280;12220;50.194;18.948;2023-03-23T01:51:50;101368.75;;;10.33;63.95
24013;BME280;12220;50.194;18.948;2023-03-23T01:53:56;101376.27;;;10.29;64.02
24013;BME280;12220;50.194;18.948;2023-03-23T01:55:59;101368.13;;;10.28;64.13
24013;BME280;12220;50.194;18.948;2023-03-23T01:58:09;101361.96;;;10.24;64.20
24013;BME280;12220;50.194;18.948;2023-03-23T02:00:12;101365.66;;;10.23;64.28
24013;BME280;12220;50.194;18.948;2023-03-23T02:02:17;101363.11;;;10.20;64.36
24013;BME280;12220;50.194;18.948;2023-03-23T02:04:23;101365.16;;;10.17;64.55
24013;BME280;12220;50.194;18.948;2023-03-23T02:06:25;101357.81;;;10.17;64.59
24013;BME280;12220;50.194;18.948;2023-03-23T02:08:27;101134.01;;;8.83;64.55
24013;BME280;12220;50.194;18.948;2023-03-23T02:10:31;101363.48;;;10.14;64.70
24013;BME280;12220;50.194;18.948;2023-03-23T02:12:33;101360.73;;;10.14;64.79
24013;BME280;12220;50.194;18.948;2023-03-23T02:14:38;101357.04;;;10.15;64.86
24013;BME280;12220;50.194;18.948;2023-03-23T02:16:51;101355.09;;;10.17;64.99
24013;BME280;12220;50.194;18.948;2023-03-23T02:21:19;101351.69;;;10.28;65.35
24013;BME280;12220;50.194;18.948;2023-03-23T02:30:16;101335.23;;;10.60;65.83
24013;BME280;12220;50.194;18.948;2023-03-23T02:32:36;101341.90;;;10.70;65.89
24013;BME280;12220;50.194;18.948;2023-03-23T02:34:53;101333.15;;;10.79;65.83
24013;BME280;12220;50.194;18.948;2023-03-23T02:37:09;101333.53;;;10.88;65.73
24013;BME280;12220;50.194;18.948;2023-03-23T02:41:34;101333.45;;;11.04;65.61
24013;BME280;12220;50.194;18.948;2023-03-23T02:43:45;101332.20;;;11.09;65.66
24013;BME280;12220;50.194;18.948;2023-03-23T02:45:49;101326.25;;;11.17;65.60
24013;BME280;12220;50.194;18.948;2023-03-23T02:47:55;101322.05;;;11.26;65.52
24013;BME280;12220;50.194;18.948;2023-03-23T02:49:58;101326.16;;;11.33;65.37
24013;BME280;12220;50.194;18.948;2023-03-23T02:52:05;101326.72;;;11.38;65.30
24013;BME280;12220;50.194;18.948;2023-03-23T02:54:09;101323.58;;;11.44;65.16
24013;BME280;12220;50.194;18.948;2023-03-23T02:56:13;101327.69;;;11.51;65.04
24013;BME280;12220;50.194;18.948;2023-03-23T02:58:36;101332.87;;;11.56;64.91
24013;BME280;12220;50.194;18.948;2023-03-23T03:00:54;101328.09;;;11.60;64.79
24013;BME280;12220;50.194;18.948;2023-03-23T03:03:24;101321.33;;;11.65;64.64
24013;BME280;12220;50.194;18.948;2023-03-23T03:14:30;101313.73;;;11.83;64.05
24013;BME280;12220;50.194;18.948;2023-03-23T03:16:46;101314.52;;;11.85;63.99
24013;BME280;12220;50.194;18.948;2023-03-23T03:19:10;101309.70;;;11.89;63.90
24013;BME280;12220;50.194;18.948;2023-03-23T03:21:26;101312.23;;;11.92;63.79
24013;BME280;12220;50.194;18.948;2023-03-23T03:23:33;101316.56;;;11.96;63.70
24013;BME280;12220;50.194;18.948;2023-03-23T03:25:36;101310.97;;;11.98;63.55
24013;BME280;12220;50.194;18.948;2023-03-23T03:27:40;101305.28;;;12.01;63.47
24013;BME280;12220;50.194;18.948;2023-03-23T03:29:44;101308.71;;;12.05;63.37
24013;BME280;12220;50.194;18.948;2023-03-23T03:31:50;101314.97;;;12.07;63.27
24013;BME280;12220;50.194;18.948;2023-03-23T03:33:57;101301.13;;;12.08;63.18
24013;BME280;12220;50.194;18.948;2023-03-23T03:36:04;101305.66;;;12.09;63.00
24013;BME280;12220;50.194;18.948;2023-03-23T03:38:11;101299.84;;;12.14;62.96
24013;BME280;12220;50.194;18.948;2023-03-23T03:40:23;101105.34;;;11.00;62.84
24013;BME280;12220;50.194;18.948;2023-03-23T03:42:25;101297.79;;;12.17;62.83
24013;BME280;12220;50.194;18.948;2023-03-23T03:44:27;101302.27;;;12.18;62.74
24013;BME280;12220;50.194;18.948;2023-03-23T03:46:29;101305.81;;;12.20;62.61
24013;BME280;12220;50.194;18.948;2023-03-23T03:48:37;101298.34;;;12.23;62.58
24013;BME280;12220;50.194;18.948;2023-03-23T03:50:39;101309.11;;;12.26;62.58
24013;BME280;12220;50.194;18.948;2023-03-23T03:52:41;101313.62;;;12.27;62.38
24013;BME280;12220;50.194;18.948;2023-03-23T03:54:42;101322.63;;;12.29;62.29
24013;BME280;12220;50.194;18.948;2023-03-23T03:56:52;101317.02;;;12.30;62.12
24013;BME280;12220;50.194;18.948;2023-03-23T03:59:14;101315.84;;;12.34;62.03
24013;BME280;12220;50.194;18.948;2023-03-23T04:01:17;101319.38;;;12.36;61.94
24013;BME280;12220;50.194;18.948;2023-03-23T04:03:19;101317.38;;;12.38;61.80
24013;BME280;12220;50.194;18.948;2023-03-23T04:05:22;101316.30;;;12.41;61.71
24013;BME280;12220;50.194;18.948;2023-03-23T04:07:29;101324.45;;;12.43;61.60
24013;BME280;12220;50.194;18.948;2023-03-23T04:09:30;101315.11;;;12.45;61.58
24013;BME280;12220;50.194;18.948;2023-03-23T04:11:33;101319.38;;;12.49;61.52
24013;BME280;12220;50.194;18.948;2023-03-23T04:13:35;101310.16;;;12.50;61.47
24013;BME280;12220;50.194;18.948;2023-03-23T04:15:45;101311.06;;;12.51;61.32
24013;BME280;12220;50.194;18.948;2023-03-23T04:17:47;101306.55;;;12.50;61.24
24013;BME280;12220;50.194;18.948;2023-03-23T04:19:48;101299.06;;;12.52;61.25
24013;BME280;12220;50.194;18.948;2023-03-23T04:25:31;101297.87;;;12.56;61.08
24013;BME280;12220;50.194;18.948;2023-03-23T04:27:35;100516.72;;;7.57;60.84
24013;BME280;12220;50.194;18.948;2023-03-23T04:29:36;101296.32;;;12.52;61.10
24013;BME280;12220;50.194;18.948;2023-03-23T04:31:38;101295.46;;;12.51;61.06
24013;BME280;12220;50.194;18.948;2023-03-23T04:33:46;101119.06;;;11.27;60.88
24013;BME280;12220;50.194;18.948;2023-03-23T04:35:48;101292.13;;;12.46;60.98
24013;BME280;12220;50.194;18.948;2023-03-23T04:37:50;101285.88;;;12.44;60.97
24013;BME280;12220;50.194;18.948;2023-03-23T04:39:52;101291.37;;;12.44;60.98
24013;BME280;12220;50.194;18.948;2023-03-23T04:42:02;101291.59;;;12.41;60.98
24013;BME280;12220;50.194;18.948;2023-03-23T04:44:05;101298.16;;;12.38;60.98
24013;BME280;12220;50.194;18.948;2023-03-23T04:46:07;101304.73;;;12.36;61.00
24013;BME280;12220;50.194;18.948;2023-03-23T04:48:12;101299.36;;;12.34;61.02
24013;BME280;12220;50.194;18.948;2023-03-23T04:50:16;101303.19;;;12.32;61.01
24013;BME280;12220;50.194;18.948;2023-03-23T04:52:19;101297.04;;;12.28;61.04
24013;BME280;12220;50.194;18.948;2023-03-23T04:54:21;101299.99;;;12.25;61.06
24013;BME280;12220;50.194;18.948;2023-03-23T04:56:23;101307.37;;;12.25;61.09
24013;BME280;12220;50.194;18.948;2023-03-23T04:58:41;101301.30;;;12.19;61.12
24013;BME280;12220;50.194;18.948;2023-03-23T05:00:52;101306.03;;;12.17;61.18
24013;BME280;12220;50.194;18.948;2023-03-23T05:02:54;101303.55;;;12.13;61.23
24013;BME280;12220;50.194;18.948;2023-03-23T05:04:57;101302.80;;;12.11;61.27
24013;BME280;12220;50.194;18.948;2023-03-23T05:06:59;101308.29;;;12.11;61.30
24013;BME280;12220;50.194;18.948;2023-03-23T05:09:07;101313.78;;;12.11;61.34
24013;BME280;12220;50.194;18.948;2023-03-23T05:11:09;101310.28;;;12.09;61.38
24013;BME280;12220;50.194;18.948;2023-03-23T05:13:11;101305.66;;;12.09;61.39
24013;BME280;12220;50.194;18.948;2023-03-23T05:15:15;101302.80;;;12.11;61.41
24013;BME280;12220;50.194;18.948;2023-03-23T05:17:22;101305.76;;;12.08;61.50
24013;BME280;12220;50.194;18.948;2023-03-23T05:19:25;101308.39;;;12.09;61.47
24013;BME280;12220;50.194;18.948;2023-03-23T05:21:28;101306.41;;;12.11;61.44
24013;BME280;12220;50.194;18.948;2023-03-23T05:23:30;101304.57;;;12.12;61.46
24013;BME280;12220;50.194;18.948;2023-03-23T05:25:37;101299.09;;;12.12;61.46
24013;BME280;12220;50.194;18.948;2023-03-23T05:27:41;101302.70;;;12.12;61.45
24013;BME280;12220;50.194;18.948;2023-03-23T05:29:49;101306.21;;;12.14;61.48
24013;BME280;12220;50.194;18.948;2023-03-23T05:31:50;101307.98;;;12.15;61.49
24013;BME280;12220;50.194;18.948;2023-03-23T05:33:56;101308.77;;;12.17;61.52
24013;BME280;12220;50.194;18.948;2023-03-23T05:35:58;101306.03;;;12.17;61.56
24013;BME280;12220;50.194;18.948;2023-03-23T05:38:01;101307.55;;;12.21;61.53
24013;BME280;12220;50.194;18.948;2023-03-23T05:40:06;101304.70;;;12.23;61.51
24013;BME280;12220;50.194;18.948;2023-03-23T05:42:08;101307.26;;;12.26;61.49
24013;BME280;12220;50.194;18.948;2023-03-23T05:44:10;101302.42;;;12.30;61.47
24013;BME280;12220;50.194;18.948;2023-03-23T05:46:14;101308.61;;;12.33;61.43
24013;BME280;12220;50.194;18.948;2023-03-23T05:48:15;101307.48;;;12.36;61.41
24013;BME280;12220;50.194;18.948;2023-03-23T05:50:23;101312.66;;;12.41;61.34
24013;BME280;12220;50.194;18.948;2023-03-23T05:52:25;101312.37;;;12.45;61.29
24013;BME280;12220;50.194;18.948;2023-03-23T05:54:27;101317.54;;;12.50;61.23
24013;BME280;12220;50.194;18.948;2023-03-23T05:56:29;101320.94;;;12.53;61.09
24013;BME280;12220;50.194;18.948;2023-03-23T05:58:38;101325.23;;;12.58;61.05
24013;BME280;12220;50.194;18.948;2023-03-23T06:00:41;101314.13;;;12.59;60.90
24013;BME280;12220;50.194;18.948;2023-03-23T06:02:42;101315.69;;;12.63;60.88
24013;BME280;12220;50.194;18.948;2023-03-23T06:04:47;101319.99;;;12.67;60.73
24013;BME280;12220;50.194;18.948;2023-03-23T06:06:53;101328.01;;;12.70;60.64
24013;BME280;12220;50.194;18.948;2023-03-23T06:08:56;101315.94;;;12.73;60.63
24013;BME280;12220;50.194;18.948;2023-03-23T06:10:58;101317.48;;;12.77;60.62
24013;BME280;12220;50.194;18.948;2023-03-23T06:13:00;101307.14;;;12.81;60.59
24013;BME280;12220;50.194;18.948;2023-03-23T06:15:09;101305.16;;;12.83;60.39
24013;BME280;12220;50.194;18.948;2023-03-23T06:17:12;101306.81;;;12.85;60.37
24013;BME280;12220;50.194;18.948;2023-03-23T06:19:14;101302.11;;;12.87;60.38
24013;BME280;12220;50.194;18.948;2023-03-23T06:21:16;101300.98;;;12.90;60.31
24013;BME280;12220;50.194;18.948;2023-03-23T06:23:23;101299.89;;;12.93;60.29
24013;BME280;12220;50.194;18.948;2023-03-23T06:25:25;101304.41;;;12.94;60.26
24013;BME280;12220;50.194;18.948;2023-03-23T06:27:27;101304.30;;;12.95;60.26
24013;BME280;12220;50.194;18.948;2023-03-23T06:29:30;101306.82;;;12.98;60.13
24013;BME280;12220;50.194;18.948;2023-03-23T06:31:41;101308.71;;;12.98;59.96
24013;BME280;12220;50.194;18.948;2023-03-23T06:33:44;101304.76;;;13.02;60.06
24013;BME280;12220;50.194;18.948;2023-03-23T06:35:45;101302.77;;;13.04;60.05
24013;BME280;12220;50.194;18.948;2023-03-23T06:37:49;101300.77;;;13.06;59.98
24013;BME280;12220;50.194;18.948;2023-03-23T06:39:54;101302.42;;;13.08;59.96
24013;BME280;12220;50.194;18.948;2023-03-23T06:41:57;101300.46;;;13.11;59.92
24013;BME280;12220;50.194;18.948;2023-03-23T06:44:00;101300.35;;;13.12;59.75
24013;BME280;12220;50.194;18.948;2023-03-23T06:46:02;101304.84;;;13.13;59.71
24013;BME280;12220;50.194;18.948;2023-03-23T06:48:08;101307.36;;;13.16;59.67
24013;BME280;12220;50.194;18.948;2023-03-23T06:50:10;101311.88;;;13.17;59.64
24013;BME280;12220;50.194;18.948;2023-03-23T06:52:11;101306.16;;;13.20;59.63
24013;BME280;12220;50.194;18.948;2023-03-23T06:54:13;101308.68;;;13.23;59.64
24013;BME280;12220;50.194;18.948;2023-03-23T06:56:24;101315.72;;;13.28;59.70
24013;BME280;12220;50.194;18.948;2023-03-23T06:58:26;101307.13;;;13.32;59.72
24013;BME280;12220;50.194;18.948;2023-03-23T07:00:28;101313.34;;;13.36;59.52
24013;BME280;12220;50.194;18.948;2023-03-23T07:02:30;101313.11;;;13.39;59.44
24013;BME280;12220;50.194;18.948;2023-03-23T07:04:38;101310.92;;;13.44;59.45
24013;BME280;12220;50.194;18.948;2023-03-23T07:06:40;101303.42;;;13.46;59.21
24013;BME280;12220;50.194;18.948;2023-03-23T07:08:41;101308.69;;;13.49;59.29
24013;BME280;12220;50.194;18.948;2023-03-23T07:10:43;101304.73;;;13.53;59.20
24013;BME280;12220;50.194;18.948;2023-03-23T07:12:53;101310.88;;;13.57;59.16
24013;BME280;12220;50.194;18.948;2023-03-23T07:14:55;101307.02;;;13.59;59.19
24013;BME280;12220;50.194;18.948;2023-03-23T07:16:56;101304.04;;;13.63;58.96
24013;BME280;12220;50.194;18.948;2023-03-23T07:18:59;101316.58;;;13.67;58.88
24013;BME280;12220;50.194;18.948;2023-03-23T07:21:08;101322.84;;;13.69;58.81
24013;BME280;12220;50.194;18.948;2023-03-23T07:23:13;101316.23;;;13.71;58.70
24013;BME280;12220;50.194;18.948;2023-03-23T07:25:16;101318.12;;;13.71;58.29
24013;BME280;12220;50.194;18.948;2023-03-23T07:27:19;101323.51;;;13.72;58.39
24013;BME280;12220;50.194;18.948;2023-03-23T07:29:23;101317.77;;;13.75;58.37
24013;BME280;12220;50.194;18.948;2023-03-23T07:31:25;101317.77;;;13.75;58.27
24013;BME280;12220;50.194;18.948;2023-03-23T07:33:27;101324.93;;;13.78;58.19
24013;BME280;12220;50.194;18.948;2023-03-23T07:35:28;101320.05;;;13.82;58.17
24013;BME280;12220;50.194;18.948;2023-03-23T07:37:38;101322.70;;;13.83;58.18
24013;BME280;12220;50.194;18.948;2023-03-23T07:39:42;101320.48;;;13.88;58.26
24013;BME280;12220;50.194;18.948;2023-03-23T07:41:44;101331.27;;;13.91;58.26
24013;BME280;12220;50.194;18.948;2023-03-23T07:43:46;101334.57;;;13.97;58.28
24013;BME280;12220;50.194;18.948;2023-03-23T07:45:53;101330.56;;;14.01;58.24
24013;BME280;12220;50.194;18.948;2023-03-23T07:47:54;101331.34;;;14.03;58.01
24013;BME280;12220;50.194;18.948;2023-03-23T07:49:56;101338.52;;;14.05;58.07
24013;BME280;12220;50.194;18.948;2023-03-23T07:51:58;101341.02;;;14.08;58.11
24013;BME280;12220;50.194;18.948;2023-03-23T07:54:07;101332.65;;;14.10;57.95
24013;BME280;12220;50.194;18.948;2023-03-23T07:56:10;101338.04;;;14.11;57.79
24013;BME280;12220;50.194;18.948;2023-03-23T07:58:15;101325.25;;;14.10;57.86
24013;BME280;12220;50.194;18.948;2023-03-23T08:00:22;101334.30;;;14.12;57.90
24013;BME280;12220;50.194;18.948;2023-03-23T08:02:25;101338.66;;;14.15;57.95
24013;BME280;12220;50.194;18.948;2023-03-23T08:04:28;101325.91;;;14.14;57.82
24013;BME280;12220;50.194;18.948;2023-03-23T08:06:32;101335.91;;;14.15;57.79
24013;BME280;12220;50.194;18.948;2023-03-23T08:08:34;101332.30;;;14.15;57.87
24013;BME280;12220;50.194;18.948;2023-03-23T08:10:37;101333.95;;;14.17;57.82
24013;BME280;12220;50.194;18.948;2023-03-23T08:12:41;101332.92;;;14.18;57.82
24013;BME280;12220;50.194;18.948;2023-03-23T08:14:43;101331.82;;;14.21;57.78
24013;BME280;12220;50.194;18.948;2023-03-23T08:16:44;101327.95;;;14.23;57.84
24013;BME280;12220;50.194;18.948;2023-03-23T08:18:52;101324.96;;;14.26;57.87
24013;BME280;12220;50.194;18.948;2023-03-23T08:20:54;101322.87;;;14.30;57.86
24013;BME280;12220;50.194;18.948;2023-03-23T08:22:56;101332.42;;;14.37;57.74
24013;BME280;12220;50.194;18.948;2023-03-23T08:25:00;101323.44;;;14.46;57.75
24013;BME280;12220;50.194;18.948;2023-03-23T08:27:07;101325.59;;;14.54;57.72
24013;BME280;12220;50.194;18.948;2023-03-23T08:29:09;101316.66;;;14.63;57.62
24013;BME280;12220;50.194;18.948;2023-03-23T08:31:12;101313.41;;;14.70;57.37
24013;BME280;12220;50.194;18.948;2023-03-23T08:33:14;101316.34;;;14.79;56.69
24013;BME280;12220;50.194;18.948;2023-03-23T08:35:22;101315.46;;;14.90;56.56
24013;BME280;12220;50.194;18.948;2023-03-23T08:37:24;101327.51;;;15.01;56.42
24013;BME280;12220;50.194;18.948;2023-03-23T08:39:26;101319.15;;;15.13;56.20
24013;BME280;12220;50.194;18.948;2023-03-23T08:41:31;101314.38;;;15.27;56.27
24013;BME280;12220;50.194;18.948;2023-03-23T08:43:37;101324.67;;;15.36;55.79
24013;BME280;12220;50.194;18.948;2023-03-23T08:45:40;101321.43;;;15.42;55.19
24013;BME280;12220;50.194;18.948;2023-03-23T08:47:44;101324.68;;;15.47;54.74
24013;BME280;12220;50.194;18.948;2023-03-23T08:49:47;101325.20;;;15.53;54.47
24013;BME280;12220;50.194;18.948;2023-03-23T08:51:54;101316.66;;;15.56;53.54
24013;BME280;12220;50.194;18.948;2023-03-23T08:53:56;101316.15;;;15.62;53.32
24013;BME280;12220;50.194;18.948;2023-03-23T08:56:07;101314.63;;;15.69;53.41
24013;BME280;12220;50.194;18.948;2023-03-23T08:58:11;101307.46;;;15.78;53.62
24013;BME280;12220;50.194;18.948;2023-03-23T09:00:18;101304.87;;;15.88;52.97
24013;BME280;12220;50.194;18.948;2023-03-23T09:02:28;101307.09;;;15.94;52.71
24013;BME280;12220;50.194;18.948;2023-03-23T09:04:34;101308.34;;;16.01;53.02
24013;BME280;12220;50.194;18.948;2023-03-23T09:06:37;101302.93;;;16.11;52.66
24013;BME280;12220;50.194;18.948;2023-03-23T09:08:39;101310.29;;;16.21;53.07
24013;BME280;12220;50.194;18.948;2023-03-23T09:10:43;101312.02;;;16.34;52.87
24013;BME280;12220;50.194;18.948;2023-03-23T09:12:46;101060.27;;;14.97;51.73
24013;BME280;12220;50.194;18.948;2023-03-23T09:14:47;101304.48;;;16.57;51.36
24013;BME280;12220;50.194;18.948;2023-03-23T09:16:49;101315.36;;;16.70;51.31
24013;BME280;12220;50.194;18.948;2023-03-23T09:18:59;101308.91;;;16.81;50.95
24013;BME280;12220;50.194;18.948;2023-03-23T09:21:02;101306.98;;;16.93;50.68
24013;BME280;12220;50.194;18.948;2023-03-23T09:23:04;101185.27;;;16.29;50.88
24013;BME280;12220;50.194;18.948;2023-03-23T09:25:08;101312.77;;;17.11;50.95
24013;BME280;12220;50.194;18.948;2023-03-23T09:27:13;101344.27;;;17.19;50.88
24013;BME280;12220;50.194;18.948;2023-03-23T09:29:16;101313.89;;;17.29;50.38
24013;BME280;12220;50.194;18.948;2023-03-23T09:31:19;101310.42;;;17.37;50.11
24013;BME280;12220;50.194;18.948;2023-03-23T09:33:23;101308.72;;;17.46;49.79
24013;BME280;12220;50.194;18.948;2023-03-23T09:35:29;101310.20;;;17.50;49.54
24013;BME280;12220;50.194;18.948;2023-03-23T09:37:32;101311.20;;;17.49;48.39
24013;BME280;12220;50.194;18.948;2023-03-23T09:39:36;101316.50;;;17.52;48.33
24013;BME280;12220;50.194;18.948;2023-03-23T09:41:50;101309.78;;;17.54;47.99
24013;BME280;12220;50.194;18.948;2023-03-23T09:48:34;101251.38;;;17.27;48.08
24013;BME280;12220;50.194;18.948;2023-03-23T09:50:52;101319.46;;;17.70;47.75
24013;BME280;12220;50.194;18.948;2023-03-23T09:55:13;101305.95;;;17.86;47.79
24013;BME280;12220;50.194;18.948;2023-03-23T09:57:22;101296.55;;;17.99;47.97
24013;BME280;12220;50.194;18.948;2023-03-23T10:01:48;101288.57;;;18.25;45.89
24013;BME280;12220;50.194;18.948;2023-03-23T10:06:17;101284.20;;;18.52;44.08
24013;BME280;12220;50.194;18.948;2023-03-23T10:08:22;101297.62;;;18.56;43.07
24013;BME280;12220;50.194;18.948;2023-03-23T10:10:32;101282.28;;;18.62;43.60
24013;BME280;12220;50.194;18.948;2023-03-23T10:17:13;101282.27;;;18.81;43.63
24013;BME280;12220;50.194;18.948;2023-03-23T10:19:26;101289.02;;;18.89;42.74
24013;BME280;12220;50.194;18.948;2023-03-23T10:21:42;101274.08;;;18.99;42.71
24013;BME280;12220;50.194;18.948;2023-03-23T10:26:11;101271.09;;;19.21;42.00
24013;BME280;12220;50.194;18.948;2023-03-23T10:28:18;101264.95;;;19.27;39.52
24013;BME280;12220;50.194;18.948;2023-03-23T10:30:29;101258.31;;;19.38;39.85
24013;BME280;12220;50.194;18.948;2023-03-23T10:32:43;101256.21;;;19.49;39.84
24013;BME280;12220;50.194;18.948;2023-03-23T10:37:16;101271.40;;;19.55;39.41
24013;BME280;12220;50.194;18.948;2023-03-23T10:39:41;101271.23;;;19.57;39.45
24013;BME280;12220;50.194;18.948;2023-03-23T10:41:48;101258.13;;;19.49;39.05
24013;BME280;12220;50.194;18.948;2023-03-23T10:43:50;101256.28;;;19.40;39.03
24013;BME280;12220;50.194;18.948;2023-03-23T10:46:02;101262.73;;;19.30;39.39
24013;BME280;12220;50.194;18.948;2023-03-23T10:50:28;101277.25;;;19.14;39.85
24013;BME280;12220;50.194;18.948;2023-03-23T10:52:38;101273.63;;;19.04;39.79
24013;BME280;12220;50.194;18.948;2023-03-23T10:54:55;101276.27;;;18.96;40.21
24013;BME280;12220;50.194;18.948;2023-03-23T10:57:23;101273.23;;;18.89;40.58
24013;BME280;12220;50.194;18.948;2023-03-23T10:59:30;101278.45;;;18.82;40.79
24013;BME280;12220;50.194;18.948;2023-03-23T11:01:34;101281.98;;;18.75;40.73
24013;BME280;12220;50.194;18.948;2023-03-23T11:03:43;101282.43;;;18.70;40.99
24013;BME280;12220;50.194;18.948;2023-03-23T11:12:33;101271.93;;;18.44;41.46
24013;BME280;12220;50.194;18.948;2023-03-23T11:14:36;101287.09;;;18.40;41.59
24013;BME280;12220;50.194;18.948;2023-03-23T11:18:53;101279.67;;;18.31;41.54
24013;BME280;12220;50.194;18.948;2023-03-23T11:20:57;101270.90;;;18.26;41.52
24013;BME280;12220;50.194;18.948;2023-03-23T11:25:30;101275.00;;;18.22;42.20
24013;BME280;12220;50.194;18.948;2023-03-23T11:27:33;101274.40;;;18.18;42.16
24013;BME280;12220;50.194;18.948;2023-03-23T11:29:48;101271.77;;;18.17;42.16
24013;BME280;12220;50.194;18.948;2023-03-23T11:34:03;101267.83;;;18.09;42.14
24013;BME280;12220;50.194;18.948;2023-03-23T11:36:07;101268.58;;;18.11;42.38
24013;BME280;12220;50.194;18.948;2023-03-23T11:38:19;101269.59;;;18.10;42.48
24013;BME280;12220;50.194;18.948;2023-03-23T11:40:24;101265.80;;;18.11;42.53
24013;BME280;12220;50.194;18.948;2023-03-23T11:42:37;101262.13;;;18.11;42.38
24013;BME280;12220;50.194;18.948;2023-03-23T11:44:42;101259.96;;;18.15;42.74
24013;BME280;12220;50.194;18.948;2023-03-23T11:49:24;101258.21;;;18.14;42.63
24013;BME280;12220;50.194;18.948;2023-03-23T11:56:26;101266.23;;;18.17;42.79